Time;durP1;ratioP1;P1;durP2;ratioP2;P2;SDS_P1;SDS_P2;PMS_P1;PMS_P2;Temp;Humidity;BMP_temperature;BMP_pressure;BME280_temperature;BME280_humidity;BME280_pressure;Samples;Min_cycle;Max_cycle;Signal;HPM_P1;HPM_P2
2022/12/17 13:06:47;;;;;;;38.60;21.92;;;9.60;87.90;;;;;;5031581;28;20052;-68
2022/12/17 13:09:22;;;;;;;41.38;23.50;;;9.60;90.90;;;;;;5033034;28;20061;-68
2022/12/17 13:12:03;;;;;;;40.47;23.52;;;9.60;87.90;;;;;;5032996;28;20053;-67
2022/12/17 13:14:58;;;;;;;40.22;23.50;;;9.30;89.20;;;;;;5032980;28;20081;-68
2022/12/17 13:17:43;;;;;;;40.22;23.15;;;9.50;87.70;;;;;;5031458;28;20137;-66
2022/12/17 13:20:25;;;;;;;41.05;23.95;;;9.60;90.80;;;;;;5032368;28;20046;-66
2022/12/17 13:23:03;;;;;;;39.30;22.20;;;9.60;90.80;;;;;;5035730;28;20045;-66
2022/12/17 13:25:28;;;;;;;41.55;23.45;;;9.40;90.20;;;;;;5052749;28;20041;-66
2022/12/17 13:27:54;;;;;;;39.88;23.17;;;9.40;90.80;;;;;;5052935;28;20044;-67
2022/12/17 13:30:21;;;;;;;41.95;23.77;;;9.80;90.90;;;;;;5052530;28;20051;-67
2022/12/17 13:33:06;;;;;;;37.60;22.77;;;;;;;;;;5053004;28;20099;-66
2022/12/17 13:35:40;;;;;;;43.33;24.05;;;9.50;90.80;;;;;;5052657;28;20045;-67
2022/12/17 13:38:25;;;;;;;39.85;23.80;;;9.50;88.20;;;;;;5053011;28;20084;-68
2022/12/17 13:40:57;;;;;;;41.72;23.08;;;9.40;90.80;;;;;;5051798;28;20406;-68
2022/12/17 13:43:25;;;;;;;39.70;22.80;;;9.50;90.20;;;;;;5052800;28;20052;-68
2022/12/17 13:45:51;;;;;;;40.13;23.23;;;9.10;90.70;;;;;;5034864;28;20044;-68
2022/12/17 13:48:22;;;;;;;39.42;22.38;;;9.50;89.40;;;;;;5035298;28;20445;-68
2022/12/17 13:50:59;;;;;;;41.50;24.35;;;9.20;90.80;;;;;;5052849;28;20076;-68
2022/12/17 13:53:25;;;;;;;42.13;23.60;;;;;;;;;;5056533;28;20040;-68
2022/12/17 13:55:53;;;;;;;40.88;23.25;;;;;;;;;;5056449;28;20045;-67
2022/12/17 13:58:27;;;;;;;40.65;23.42;;;9.70;90.90;;;;;;5051120;28;20375;-67
2022/12/17 14:01:11;;;;;;;40.75;23.48;;;9.50;90.90;;;;;;5055809;28;20057;-67
2022/12/17 14:03:37;;;;;;;40.65;22.38;;;;;;;;;;5056231;28;20048;-68
2022/12/17 14:06:04;;;;;;;39.70;23.05;;;9.40;90.90;;;;;;5055938;28;20037;-68
2022/12/17 14:08:30;;;;;;;41.38;22.85;;;9.50;88.60;;;;;;5038219;28;20131;-68
2022/12/17 14:12:20;;;;;;;40.33;23.65;;;9.40;90.80;;;;;;5038376;28;20040;-68
2022/12/17 14:13:43;;;;;;;40.00;23.60;;;;;;;;;;5055316;28;20120;-67
2022/12/17 14:16:09;;;;;;;42.13;23.75;;;9.70;90.90;;;;;;5055694;28;20048;-67
2022/12/17 14:18:34;;;;;;;39.75;23.70;;;9.20;89.20;;;;;;5055765;28;20132;-68
2022/12/17 14:21:01;;;;;;;40.72;22.70;;;;;;;;;;5038229;28;20045;-67
2022/12/17 14:23:30;;;;;;;40.45;22.75;;;9.30;88.90;;;;;;5037972;28;20053;-67
2022/12/17 14:25:56;;;;;;;38.05;21.52;;;;;;;;;;5055874;28;20427;-68
2022/12/17 14:28:31;;;;;;;38.55;22.23;;;9.60;90.90;;;;;;5039690;28;20437;-67
2022/12/17 14:31:27;;;;;;;38.75;21.63;;;9.40;89.40;;;;;;5039236;28;20049;-67
2022/12/17 14:34:06;;;;;;;44.03;23.70;;;9.30;88.10;;;;;;5043162;28;20053;-67
2022/12/17 14:36:33;;;;;;;40.65;22.15;;;9.40;90.80;;;;;;5055664;28;20127;-67
2022/12/17 14:39:01;;;;;;;42.10;23.05;;;9.40;89.50;;;;;;5055655;28;20037;-67
2022/12/17 14:44:20;;;;;;;39.17;21.65;;;9.10;87.50;;;;;;5040487;28;20041;-68
2022/12/17 14:46:46;;;;;;;41.45;23.35;;;;;;;;;;5055512;28;20053;-67
2022/12/17 14:49:18;;;;;;;41.80;23.02;;;9.40;88.90;;;;;;5054624;28;20071;-67
2022/12/17 14:51:44;;;;;;;40.67;23.23;;;9.50;90.90;;;;;;5055134;28;20044;-67
2022/12/17 14:54:18;;;;;;;39.97;22.42;;;9.30;90.80;;;;;;5037635;28;20078;-66
2022/12/17 14:56:44;;;;;;;41.60;22.52;;;;;;;;;;5037265;28;20084;-65
2022/12/17 14:59:33;;;;;;;40.53;23.77;;;9.50;88.20;;;;;;5037911;28;20037;-65
2022/12/17 15:02:19;;;;;;;40.72;21.90;;;9.30;90.80;;;;;;5054890;28;20063;-65
2022/12/17 15:04:45;;;;;;;38.28;21.90;;;9.40;90.80;;;;;;5053339;28;20045;-67
2022/12/17 15:07:15;;;;;;;41.35;23.02;;;9.20;87.60;;;;;;5017930;28;20049;-68
2022/12/17 15:09:42;;;;;;;41.00;21.77;;;;;;;;;;5035159;28;20052;-67
2022/12/17 15:12:08;;;;;;;36.53;21.00;;;9.30;90.80;;;;;;5035078;28;20128;-67
2022/12/17 15:14:34;;;;;;;41.60;22.08;;;9.30;89.40;;;;;;5017191;28;20132;-67
2022/12/17 15:17:00;;;;;;;39.85;21.90;;;9.30;90.80;;;;;;5034977;28;20044;-67
2022/12/17 15:19:26;;;;;;;38.58;22.08;;;9.30;91.00;;;;;;5034976;28;20491;-67
2022/12/17 15:21:52;;;;;;;39.17;22.00;;;8.80;90.70;;;;;;5018065;28;20038;-67
2022/12/17 15:24:19;;;;;;;40.72;22.05;;;9.20;88.90;;;;;;5016945;28;20057;-67
2022/12/17 15:26:45;;;;;;;41.28;21.33;;;8.90;90.70;;;;;;5037299;28;20460;-67
2022/12/17 15:29:11;;;;;;;40.40;22.50;;;;;;;;;;5054425;28;20445;-66
2022/12/17 15:31:37;;;;;;;42.97;22.02;;;;;;;;;;5054639;28;20045;-66
2022/12/17 15:34:03;;;;;;;40.17;21.35;;;;;;;;;;5054182;28;20041;-65
2022/12/17 15:36:30;;;;;;;37.90;20.67;;;9.10;90.80;;;;;;5054510;28;20048;-66
2022/12/17 15:38:57;;;;;;;37.80;21.30;;;;;;;;;;5053682;28;20112;-67
2022/12/17 15:44:07;;;;;;;42.38;22.25;;;9.10;91.00;;;;;;5054424;28;20056;-66
2022/12/17 15:46:33;;;;;;;37.80;20.85;;;;;;;;;;5054354;28;20056;-67
2022/12/17 15:48:59;;;;;;;38.00;20.60;;;9.10;89.30;;;;;;5054346;28;20036;-67
2022/12/17 15:51:25;;;;;;;43.30;22.15;;;8.80;90.70;;;;;;5053950;28;20051;-67
2022/12/17 15:53:51;;;;;;;45.95;22.67;;;9.20;90.80;;;;;;5054230;28;20053;-67
2022/12/17 15:56:21;;;;;;;39.47;21.90;;;;;;;;;;5047332;28;20045;-66
2022/12/17 15:58:47;;;;;;;43.70;20.83;;;;;;;;;;5043365;28;20498;-66
2022/12/17 16:01:13;;;;;;;38.92;20.95;;;;;;;;;;5053660;28;20084;-66
2022/12/17 16:03:39;;;;;;;41.40;20.85;;;9.20;90.80;;;;;;5053629;28;20049;-67
2022/12/17 16:06:06;;;;;;;42.33;21.80;;;9.10;90.90;;;;;;5035937;28;20045;-65
2022/12/17 16:08:32;;;;;;;41.28;20.77;;;9.00;89.20;;;;;;5054060;28;20115;-66
2022/12/17 16:10:57;;;;;;;42.83;20.73;;;9.10;90.80;;;;;;5053876;28;20084;-67
2022/12/17 16:13:23;;;;;;;44.72;22.73;;;9.20;89.30;;;;;;5046455;28;20080;-68
2022/12/17 16:15:59;;;;;;;38.88;20.10;;;9.20;87.40;;;;;;5033457;28;20402;-68
2022/12/17 16:18:25;;;;;;;42.38;22.45;;;9.00;89.20;;;;;;5033660;28;20045;-67
2022/12/17 16:20:51;;;;;;;41.60;21.27;;;;;;;;;;5033838;28;20041;-68
2022/12/17 16:23:17;;;;;;;42.20;20.38;;;;;;;;;;5033763;28;20068;-67
2022/12/17 16:25:43;;;;;;;41.55;21.23;;;9.00;90.80;;;;;;5033854;28;20041;-67
2022/12/17 16:28:09;;;;;;;42.92;21.23;;;9.10;90.80;;;;;;5033480;28;20458;-68
2022/12/17 16:30:35;;;;;;;41.75;20.70;;;9.20;90.80;;;;;;5052202;28;20041;-67
2022/12/17 16:33:00;;;;;;;42.65;20.60;;;9.20;90.80;;;;;;5035717;28;20084;-65
2022/12/17 16:35:27;;;;;;;42.25;20.13;;;9.30;90.80;;;;;;5053251;28;20144;-66
2022/12/17 16:37:53;;;;;;;42.00;20.73;;;9.10;89.20;;;;;;5053332;28;20407;-65
2022/12/17 16:40:19;;;;;;;45.92;21.70;;;9.20;90.80;;;;;;5053128;28;20103;-67
2022/12/17 16:42:45;;;;;;;40.30;20.55;;;9.10;90.80;;;;;;5053163;28;20049;-69
2022/12/17 16:45:12;;;;;;;43.97;20.20;;;;;;;;;;5053461;28;20037;-67
2022/12/17 16:47:38;;;;;;;39.22;19.80;;;9.10;90.70;;;;;;5052530;28;20091;-67
2022/12/17 16:50:04;;;;;;;40.58;19.48;;;9.20;89.20;;;;;;5053477;28;20041;-68
2022/12/17 16:52:30;;;;;;;43.70;20.10;;;9.10;90.70;;;;;;5053354;28;20451;-67
2022/12/17 16:54:56;;;;;;;44.90;20.58;;;9.00;90.90;;;;;;5053080;28;20083;-68
2022/12/17 16:57:22;;;;;;;41.45;19.98;;;9.20;90.80;;;;;;5053397;28;20047;-67
2022/12/17 16:59:48;;;;;;;45.58;19.90;;;;;;;;;;5052565;28;20048;-65
2022/12/17 17:02:14;;;;;;;46.60;20.52;;;9.20;89.30;;;;;;5052948;28;20081;-67
2022/12/17 17:04:40;;;;;;;42.83;19.20;;;9.20;90.80;;;;;;5043435;28;20119;-67
2022/12/17 17:07:06;;;;;;;40.65;19.38;;;9.20;91.00;;;;;;5033384;28;20531;-67
2022/12/17 17:09:32;;;;;;;41.40;19.35;;;9.20;90.80;;;;;;5033387;28;20045;-67
2022/12/17 17:11:58;;;;;;;43.83;20.33;;;9.00;90.80;;;;;;5015786;28;20041;-68
2022/12/17 17:14:25;;;;;;;43.97;19.83;;;9.00;90.80;;;;;;5033306;28;20041;-67
2022/12/17 17:16:51;;;;;;;42.17;20.83;;;8.80;90.70;;;;;;5033206;28;20530;-67
2022/12/17 17:19:17;;;;;;;40.53;19.88;;;9.20;90.80;;;;;;5033249;28;20042;-66
2022/12/17 17:21:51;;;;;;;40.53;19.38;;;9.10;87.70;;;;;;5015925;28;20068;-67
2022/12/17 17:24:18;;;;;;;39.97;19.75;;;9.00;89.10;;;;;;5033263;28;20059;-66
2022/12/17 17:26:43;;;;;;;42.25;18.77;;;9.00;90.80;;;;;;5034291;28;20041;-69
2022/12/17 17:29:09;;;;;;;45.47;19.85;;;8.90;90.70;;;;;;5036384;28;20052;-67
2022/12/17 17:31:35;;;;;;;42.65;19.58;;;9.30;90.80;;;;;;5036971;28;20081;-67
2022/12/17 17:34:01;;;;;;;43.60;19.45;;;8.90;90.70;;;;;;5036925;28;20127;-67
2022/12/17 17:36:28;;;;;;;44.20;20.65;;;8.80;89.00;;;;;;5019220;28;20049;-66
2022/12/17 17:38:54;;;;;;;39.83;19.52;;;8.90;89.10;;;;;;5037315;28;20441;-68
2022/12/17 17:41:21;;;;;;;43.00;20.17;;;9.00;90.70;;;;;;5036493;28;20045;-68
2022/12/17 17:43:54;;;;;;;42.60;19.50;;;8.90;90.80;;;;;;5036769;28;20052;-68
2022/12/17 17:46:20;;;;;;;41.95;20.45;;;9.20;90.80;;;;;;5036986;28;20052;-67
2022/12/17 17:48:47;;;;;;;46.97;21.20;;;9.20;90.70;;;;;;5036391;28;20396;-69
2022/12/17 17:51:14;;;;;;;45.67;20.55;;;9.00;90.70;;;;;;5036352;28;20053;-67
2022/12/17 17:53:41;;;;;;;45.30;21.27;;;;;;;;;;5036275;28;20483;-66
2022/12/17 17:56:14;;;;;;;43.53;19.77;;;8.90;89.00;;;;;;5036742;28;20064;-67
2022/12/17 17:58:44;;;;;;;44.20;20.75;;;8.90;90.60;;;;;;5036302;28;20135;-67
2022/12/17 18:01:11;;;;;;;49.05;21.42;;;8.80;90.70;;;;;;5050038;28;20454;-68
2022/12/17 18:03:37;;;;;;;44.58;22.02;;;8.90;90.70;;;;;;5055902;28;20057;-65
2022/12/17 18:06:07;;;;;;;45.28;20.65;;;8.90;89.00;;;;;;5056631;28;20427;-67
2022/12/17 18:08:34;;;;;;;42.58;20.42;;;8.80;90.60;;;;;;5055920;28;20123;-68
2022/12/17 18:11:00;;;;;;;44.15;21.00;;;;;;;;;;5056212;28;20041;-67
2022/12/17 18:16:11;;;;;;;46.10;22.45;;;8.80;90.60;;;;;;5036164;28;20140;-67
2022/12/17 18:18:37;;;;;;;46.97;21.85;;;9.00;90.70;;;;;;5035817;28;20135;-67
2022/12/17 18:21:07;;;;;;;43.90;21.52;;;8.90;88.00;;;;;;5036059;28;20037;-67
2022/12/17 18:23:33;;;;;;;46.22;21.83;;;9.00;90.60;;;;;;5036013;28;20490;-67
2022/12/17 18:26:13;;;;;;;47.13;22.58;;;8.50;90.50;;;;;;5035966;28;20076;-68
2022/12/17 18:28:39;;;;;;;45.58;22.90;;;;;;;;;;5038893;28;20077;-66
2022/12/17 18:31:06;;;;;;;47.65;23.27;;;8.90;90.60;;;;;;5056174;28;20037;-67
2022/12/17 18:33:32;;;;;;;46.25;22.10;;;8.80;90.60;;;;;;5055761;28;20128;-67
2022/12/17 18:35:58;;;;;;;45.47;23.05;;;;;;;;;;5055718;28;20453;-67
2022/12/17 18:38:24;;;;;;;46.45;22.17;;;;;;;;;;5055145;28;20033;-68
2022/12/17 18:40:50;;;;;;;46.40;22.00;;;8.80;90.50;;;;;;5055058;28;20076;-65
2022/12/17 18:43:22;;;;;;;51.30;24.38;;;8.60;90.20;;;;;;5054738;28;20073;-68
2022/12/17 18:45:48;;;;;;;51.35;23.40;;;;;;;;;;5068346;28;20141;-64
2022/12/17 18:48:14;;;;;;;47.10;22.38;;;8.70;90.50;;;;;;5074538;28;20090;-65
2022/12/17 18:50:40;;;;;;;53.00;23.90;;;;;;;;;;5075124;28;20036;-69
2022/12/17 18:53:06;;;;;;;49.38;23.88;;;8.70;90.70;;;;;;5071434;28;20048;-64
2022/12/17 18:55:32;;;;;;;51.55;25.13;;;8.30;90.40;;;;;;5068263;28;20154;-66
2022/12/17 18:58:00;;;;;;;51.15;25.05;;;8.50;88.70;;;;;;5074933;28;20167;-66
2022/12/17 19:00:26;;;;;;;48.35;24.50;;;;;;;;;;5071593;28;20094;-66
2022/12/17 19:02:52;;;;;;;47.00;24.38;;;8.80;90.50;;;;;;5050776;28;20128;-65
2022/12/17 19:05:18;;;;;;;50.03;23.77;;;;;;;;;;5052455;28;20205;-65
2022/12/17 19:07:44;;;;;;;50.47;24.35;;;8.80;90.60;;;;;;5071900;28;20150;-64
2022/12/17 19:10:10;;;;;;;49.00;24.52;;;8.80;90.60;;;;;;5074798;28;20054;-65
2022/12/17 19:12:36;;;;;;;46.28;24.35;;;8.80;90.50;;;;;;5074447;28;20041;-66
2022/12/17 19:15:02;;;;;;;52.25;25.55;;;8.80;90.50;;;;;;5074921;28;20074;-68
2022/12/17 19:17:28;;;;;;;52.30;26.45;;;;;;;;;;5074620;28;20490;-68
2022/12/17 19:19:54;;;;;;;56.55;27.13;;;8.30;90.40;;;;;;5064420;28;20056;-66
2022/12/17 19:22:20;;;;;;;55.97;28.63;;;;;;;;;;5034846;28;20041;-64
2022/12/17 19:24:47;;;;;;;53.88;26.63;;;;;;;;;;5067912;28;20413;-65
2022/12/17 19:27:12;;;;;;;53.25;27.13;;;8.70;90.60;;;;;;5074512;28;20048;-66
2022/12/17 19:29:39;;;;;;;55.15;28.08;;;;;;;;;;5071691;28;20047;-64
2022/12/17 19:32:04;;;;;;;56.63;27.65;;;8.60;90.50;;;;;;5074642;28;20385;-67
2022/12/17 19:34:31;;;;;;;57.20;28.00;;;9.00;90.70;;;;;;5074286;28;20123;-66
2022/12/17 19:36:57;;;;;;;61.85;29.58;;;8.90;90.40;;;;;;5066609;28;20471;-66
2022/12/17 19:39:23;;;;;;;58.40;28.67;;;;;;;;;;5047309;28;20048;-64
2022/12/17 19:41:49;;;;;;;55.17;27.58;;;8.50;90.50;;;;;;5069658;28;20048;-64
2022/12/17 19:44:15;;;;;;;57.13;27.70;;;8.60;90.50;;;;;;5074052;28;20040;-65
2022/12/17 19:46:41;;;;;;;54.58;28.40;;;8.20;90.50;;;;;;5074496;28;20039;-66
2022/12/17 19:49:10;;;;;;;55.63;27.80;;;;;;;;;;5073163;28;20040;-66
2022/12/17 19:51:37;;;;;;;51.97;28.20;;;8.60;90.50;;;;;;5050056;28;20044;-65
2022/12/17 19:54:03;;;;;;;53.25;26.73;;;8.50;90.60;;;;;;5063447;28;20041;-64
2022/12/17 19:56:31;;;;;;;55.55;29.23;;;;;;;;;;5033937;28;20051;-65
2022/12/17 19:58:59;;;;;;;56.30;28.50;;;8.60;88.10;;;;;;5043016;28;20169;-65
2022/12/17 20:01:27;;;;;;;56.28;28.95;;;8.20;90.40;;;;;;5070823;28;20060;-65
2022/12/17 20:03:53;;;;;;;56.45;29.15;;;8.40;88.50;;;;;;5073651;28;20059;-67
2022/12/17 20:06:20;;;;;;;55.50;29.70;;;8.60;90.50;;;;;;5073770;28;20080;-67
2022/12/17 20:08:46;;;;;;;57.90;29.70;;;8.60;90.60;;;;;;5074003;28;20127;-67
2022/12/17 20:11:31;;;;;;;54.83;30.17;;;8.60;87.40;;;;;;5064953;28;20064;-67
2022/12/17 20:14:17;;;;;;;60.13;30.92;;;8.50;88.60;;;;;;5073593;28;20555;-68
2022/12/17 20:16:44;;;;;;;56.60;28.90;;;8.60;90.50;;;;;;5073817;28;20041;-67
2022/12/17 20:19:12;;;;;;;57.03;29.35;;;8.60;88.60;;;;;;5072140;28;20059;-67
2022/12/17 20:21:38;;;;;;;57.70;30.25;;;;;;;;;;5071008;28;20053;-67
2022/12/17 20:24:04;;;;;;;56.25;29.95;;;8.40;90.50;;;;;;5073707;28;20398;-67
2022/12/17 20:26:30;;;;;;;56.60;29.63;;;;;;;;;;5073407;28;20044;-67
2022/12/17 20:28:57;;;;;;;58.42;30.38;;;8.20;90.40;;;;;;5048794;28;20053;-67
2022/12/17 20:31:26;;;;;;;58.97;31.35;;;;;;;;;;5033810;28;20049;-67
2022/12/17 20:33:52;;;;;;;58.47;31.27;;;;;;;;;;5071151;28;20099;-66
2022/12/17 20:36:18;;;;;;;59.58;31.60;;;8.60;90.50;;;;;;5073669;28;20432;-67
2022/12/17 20:38:45;;;;;;;62.22;31.50;;;;;;;;;;5073616;28;20085;-64
2022/12/17 20:41:22;;;;;;;53.15;30.42;;;8.50;90.50;;;;;;5073562;28;20040;-66
2022/12/17 20:43:48;;;;;;;62.58;32.05;;;8.30;90.40;;;;;;5063060;28;20134;-66
2022/12/17 20:46:15;;;;;;;62.60;31.23;;;8.80;90.50;;;;;;5068387;28;20048;-67
2022/12/17 20:48:41;;;;;;;65.95;31.73;;;;;;;;;;5073183;28;20095;-69
2022/12/17 20:51:09;;;;;;;60.92;31.50;;;;;;;;;;5073121;28;20048;-67
2022/12/17 20:53:35;;;;;;;62.72;31.15;;;8.60;90.50;;;;;;5070167;28;20056;-66
2022/12/17 20:56:02;;;;;;;62.90;31.65;;;8.80;90.50;;;;;;5073952;28;20115;-67
2022/12/17 20:58:28;;;;;;;64.65;31.45;;;;;;;;;;5073332;28;20080;-65
2022/12/17 21:01:01;;;;;;;65.47;32.75;;;;;;;;;;5074741;28;20071;-66
2022/12/17 21:03:27;;;;;;;59.20;30.23;;;8.60;90.60;;;;;;5073085;28;20048;-65
2022/12/17 21:05:53;;;;;;;61.58;31.27;;;;;;;;;;5075856;28;20113;-65
2022/12/17 21:08:19;;;;;;;61.72;30.60;;;8.00;90.60;;;;;;5077052;28;20596;-66
2022/12/17 21:10:44;;;;;;;60.33;30.60;;;8.70;91.00;;;;;;5076868;28;20045;-66
2022/12/17 21:13:28;;;;;;;59.92;31.48;;;8.90;91.10;;;;;;5073089;28;20049;-65
2022/12/17 21:15:58;;;;;;;59.75;31.83;;;8.50;88.40;;;;;;5076395;28;20113;-65
2022/12/17 21:18:25;;;;;;;63.33;31.38;;;8.70;90.30;;;;;;5077247;28;20041;-63
2022/12/17 21:21:04;;;;;;;61.90;30.08;;;8.30;88.60;;;;;;5045262;28;20123;-65
2022/12/17 21:23:30;;;;;;;59.35;30.40;;;8.50;90.90;;;;;;5073853;28;20055;-66
2022/12/17 21:26:01;;;;;;;62.97;30.70;;;8.50;87.60;;;;;;5077062;28;20414;-65
2022/12/17 21:28:28;;;;;;;59.58;29.75;;;;;;;;;;5076842;28;20052;-60
2022/12/17 21:30:53;;;;;;;59.15;30.42;;;8.80;91.10;;;;;;5076928;28;20041;-66
2022/12/17 21:33:20;;;;;;;56.30;30.25;;;;;;;;;;5055368;28;20409;-65
2022/12/17 21:35:46;;;;;;;61.70;30.30;;;8.50;91.00;;;;;;5071058;28;20391;-65
2022/12/17 21:38:12;;;;;;;63.13;30.25;;;8.60;91.00;;;;;;5019213;28;20045;-65
2022/12/17 21:40:38;;;;;;;64.93;30.30;;;8.70;91.20;;;;;;5036591;28;20053;-65
2022/12/17 21:43:04;;;;;;;63.72;30.80;;;;;;;;;;5039441;28;20048;-66
2022/12/17 21:45:37;;;;;;;62.50;30.70;;;8.70;91.10;;;;;;5074959;28;20047;-65
2022/12/17 21:48:07;;;;;;;58.35;30.00;;;8.50;91.00;;;;;;5076288;28;20124;-65
2022/12/17 21:50:33;;;;;;;60.65;29.70;;;;;;;;;;5076589;28;20055;-65
2022/12/17 21:52:59;;;;;;;55.72;28.77;;;;;;;;;;5067629;28;20044;-65
2022/12/17 21:55:26;;;;;;;61.70;30.17;;;8.40;91.00;;;;;;5066071;28;20137;-65
2022/12/17 21:57:51;;;;;;;59.08;30.15;;;8.60;91.00;;;;;;5076476;28;20048;-66
2022/12/17 22:00:17;;;;;;;57.72;29.95;;;8.60;91.00;;;;;;5075979;28;20554;-65
2022/12/17 22:02:43;;;;;;;61.17;30.60;;;8.60;89.90;;;;;;5076296;28;20052;-66
2022/12/17 22:05:09;;;;;;;58.42;29.15;;;8.70;91.00;;;;;;5072439;28;20402;-66
2022/12/17 22:07:35;;;;;;;57.33;29.38;;;;;;;;;;5075949;28;20048;-67
2022/12/17 22:10:01;;;;;;;61.13;28.35;;;8.40;91.10;;;;;;5066673;28;20124;-67
2022/12/17 22:15:11;;;;;;;57.20;29.45;;;8.70;90.00;;;;;;5062611;28;20048;-67
2022/12/17 22:17:41;;;;;;;57.92;29.20;;;8.50;88.00;;;;;;5076088;28;20444;-67
2022/12/17 22:20:07;;;;;;;58.17;28.17;;;8.60;91.30;;;;;;5075734;28;20052;-66
2022/12/17 22:22:34;;;;;;;56.80;28.17;;;;;;;;;;5075900;28;20040;-67
2022/12/17 22:24:59;;;;;;;57.60;29.55;;;9.00;91.10;;;;;;5071525;28;20037;-66
2022/12/17 22:27:25;;;;;;;55.80;27.30;;;8.70;91.00;;;;;;5059774;28;20049;-67
2022/12/17 22:35:20;;;;;;;55.90;29.40;;;8.70;91.10;;;;;;5072517;28;20403;-66
2022/12/17 22:37:45;;;;;;;57.60;29.23;;;8.40;91.00;;;;;;5076211;28;20127;-64
2022/12/17 22:40:11;;;;;;;52.70;27.73;;;8.60;91.20;;;;;;5075714;28;20046;-65
2022/12/17 22:45:21;;;;;;;58.75;28.85;;;8.70;91.30;;;;;;5066111;28;20123;-65
2022/12/17 22:47:48;;;;;;;56.47;28.50;;;;;;;;;;5075221;28;20087;-61
2022/12/17 22:50:13;;;;;;;52.78;28.00;;;8.90;91.40;;;;;;5075436;28;20045;-67
2022/12/17 22:52:39;;;;;;;56.03;26.73;;;8.70;91.30;;;;;;5075468;28;20062;-65
2022/12/17 22:55:06;;;;;;;55.88;27.80;;;8.70;91.30;;;;;;5067963;28;20040;-67
2022/12/17 22:57:32;;;;;;;56.95;29.05;;;8.70;91.30;;;;;;5075335;28;20097;-66
2022/12/17 22:59:58;;;;;;;54.00;29.25;;;8.50;90.20;;;;;;5074841;28;20052;-60
2022/12/17 23:02:23;;;;;;;55.70;28.50;;;8.30;91.20;;;;;;5043054;28;20491;-66
2022/12/17 23:04:49;;;;;;;57.50;28.38;;;8.70;91.30;;;;;;5067191;28;20037;-66
2022/12/17 23:07:15;;;;;;;55.08;28.70;;;;;;;;;;5074869;28;20374;-66
2022/12/17 23:09:41;;;;;;;56.85;27.75;;;8.60;90.10;;;;;;5074889;28;20037;-65
2022/12/17 23:14:52;;;;;;;53.22;27.98;;;8.70;91.30;;;;;;5071993;28;20044;-67
2022/12/17 23:17:17;;;;;;;56.08;27.55;;;8.80;91.20;;;;;;5074011;28;20047;-67
2022/12/17 23:19:43;;;;;;;54.10;29.23;;;8.50;91.20;;;;;;5037593;28;20056;-62
2022/12/17 23:22:09;;;;;;;54.97;28.30;;;;;;;;;;5034642;28;20042;-66
2022/12/17 23:24:35;;;;;;;54.53;27.10;;;8.60;91.00;;;;;;5046036;28;20052;-60
2022/12/17 23:27:01;;;;;;;55.88;27.52;;;;;;;;;;5072885;28;20036;-67
2022/12/17 23:29:27;;;;;;;50.97;26.83;;;;;;;;;;5074190;28;20081;-60
2022/12/17 23:31:53;;;;;;;50.95;26.80;;;;;;;;;;5063605;28;20048;-65
2022/12/17 23:34:19;;;;;;;52.38;26.27;;;;;;;;;;5053671;28;20045;-65
2022/12/17 23:36:45;;;;;;;54.15;27.35;;;8.60;90.90;;;;;;5036511;28;20049;-65
2022/12/17 23:39:11;;;;;;;52.83;27.77;;;8.10;90.80;;;;;;5034635;28;20391;-66
2022/12/17 23:41:37;;;;;;;51.97;27.33;;;;;;;;;;5035085;28;20120;-65
2022/12/17 23:44:04;;;;;;;54.42;27.65;;;8.60;90.90;;;;;;5034475;28;20067;-65
2022/12/17 23:46:30;;;;;;;50.22;27.27;;;8.40;90.90;;;;;;5062841;28;20461;-66
2022/12/17 23:48:56;;;;;;;54.25;27.92;;;;;;;;;;5074322;28;20044;-66
2022/12/17 23:51:23;;;;;;;54.53;27.73;;;8.60;90.00;;;;;;5070687;28;20045;-64
2022/12/17 23:53:49;;;;;;;54.47;27.73;;;8.20;90.70;;;;;;5034910;28;20196;-65
2022/12/17 23:56:22;;;;;;;52.55;27.08;;;8.50;88.80;;;;;;5033989;28;20057;-63
2022/12/17 23:58:51;;;;;;;56.55;27.30;;;8.50;88.70;;;;;;5034103;28;20084;-66
